createdAt,value
2019-03-04T00:00:15.136Z,54.0
2019-03-04T00:03:15.645Z,53.7
2019-03-04T00:06:15.251Z,53.4
2019-03-04T00:09:15.187Z,53.4
2019-03-04T00:12:15.117Z,53.3
2019-03-04T00:15:16.107Z,53.0
2019-03-04T00:18:15.265Z,52.7
2019-03-04T00:21:14.993Z,52.8
2019-03-04T00:24:16.004Z,52.7
2019-03-04T00:27:15.387Z,52.6
2019-03-04T00:30:15.108Z,52.5
2019-03-04T00:33:15.734Z,52.2
2019-03-04T00:36:15.590Z,52.1
2019-03-04T00:39:15.261Z,51.8
2019-03-04T00:42:16.114Z,52.2
2019-03-04T00:45:15.786Z,51.9
2019-03-04T00:48:15.649Z,51.5
2019-03-04T00:51:15.328Z,51.5
2019-03-04T00:54:15.162Z,51.3
2019-03-04T00:57:16.020Z,51.2
2019-03-04T01:00:15.741Z,51.0
2019-03-04T01:03:15.723Z,50.9
2019-03-04T01:06:15.322Z,50.7
2019-03-04T01:09:15.305Z,50.7
2019-03-04T01:12:15.260Z,50.7
2019-03-04T01:15:15.081Z,50.6
2019-03-04T01:18:15.789Z,50.3
2019-03-04T01:21:15.521Z,50.5
2019-03-04T01:24:15.343Z,50.7
2019-03-04T01:27:15.233Z,51.0
2019-03-04T01:30:15.219Z,51.0
2019-03-04T01:33:15.002Z,51.0
2019-03-04T01:36:14.874Z,51.3
2019-03-04T01:39:15.615Z,51.3
2019-03-04T01:42:15.242Z,51.5
2019-03-04T01:45:16.039Z,51.8
2019-03-04T01:48:15.663Z,51.9
2019-03-04T01:51:15.109Z,51.5
2019-03-04T01:54:15.957Z,52.0
2019-03-04T01:57:15.454Z,52.3
2019-03-04T02:00:15.341Z,52.6
2019-03-04T02:03:15.265Z,53.0
2019-03-04T02:06:14.986Z,53.8
2019-03-04T02:09:15.991Z,53.6
2019-03-04T02:12:15.365Z,53.7
2019-03-04T02:15:14.906Z,54.2
2019-03-04T02:18:15.526Z,55.1
2019-03-04T02:21:15.262Z,55.0
2019-03-04T02:24:15.224Z,55.2
2019-03-04T02:27:15.879Z,55.8
2019-03-04T02:30:15.477Z,56.0
2019-03-04T02:33:15.026Z,56.3
2019-03-04T02:36:15.779Z,56.6
2019-03-04T02:39:15.459Z,56.4
2019-03-04T02:42:15.370Z,56.8
2019-03-04T02:45:15.077Z,56.6
2019-03-04T02:48:14.970Z,57.1
2019-03-04T02:51:15.705Z,56.8
2019-03-04T02:54:15.439Z,56.7
2019-03-04T02:57:15.595Z,56.7
2019-03-04T03:00:15.457Z,56.8
2019-03-04T03:03:15.185Z,56.4
2019-03-04T03:06:16.205Z,56.1
2019-03-04T03:09:14.991Z,56.0
2019-03-04T03:12:15.730Z,55.7
2019-03-04T03:15:15.648Z,55.9
2019-03-04T03:18:15.679Z,56.1
2019-03-04T03:21:15.422Z,56.6
2019-03-04T03:24:15.104Z,56.3
2019-03-04T03:27:15.795Z,56.7
2019-03-04T03:30:15.468Z,56.7
2019-03-04T03:33:15.182Z,56.1
2019-03-04T03:36:14.960Z,56.0
2019-03-04T03:39:15.590Z,56.4
2019-03-04T03:42:18.671Z,56.4
2019-03-04T03:45:14.917Z,55.9
2019-03-04T03:48:15.564Z,55.9
2019-03-04T03:51:15.244Z,55.8
2019-03-04T03:54:15.132Z,56.3
2019-03-04T03:57:15.893Z,56.7
2019-03-04T04:00:15.413Z,56.5
2019-03-04T04:03:15.202Z,56.2
2019-03-04T04:06:15.772Z,56.2
2019-03-04T04:09:15.354Z,56.3
2019-03-04T04:12:15.266Z,56.2
2019-03-04T04:15:15.943Z,56.4
2019-03-04T04:18:15.110Z,56.2
2019-03-04T04:21:15.775Z,56.0
2019-03-04T04:24:15.674Z,56.2
2019-03-04T04:27:15.419Z,56.1
2019-03-04T04:30:15.268Z,55.9
2019-03-04T04:33:15.670Z,55.9
2019-03-04T04:36:15.246Z,55.8
2019-03-04T04:39:15.773Z,55.7
2019-03-04T04:42:15.297Z,55.6
2019-03-04T04:45:15.849Z,55.6
2019-03-04T04:48:15.553Z,55.4
2019-03-04T04:51:15.250Z,55.2
2019-03-04T04:54:15.903Z,55.3
2019-03-04T04:57:15.692Z,55.1
2019-03-04T05:00:15.281Z,55.0
2019-03-04T05:03:15.815Z,54.8
2019-03-04T05:06:15.589Z,54.7
2019-03-04T05:09:15.859Z,54.3
2019-03-04T05:12:15.444Z,54.5
2019-03-04T05:15:15.119Z,54.5
2019-03-04T05:18:15.631Z,54.4
2019-03-04T05:21:15.243Z,54.4
2019-03-04T05:24:14.971Z,54.6
2019-03-04T05:27:15.510Z,54.3
2019-03-04T05:30:15.438Z,54.2
2019-03-04T05:33:15.135Z,54.7
2019-03-04T05:36:15.921Z,54.5
2019-03-04T05:39:15.706Z,54.4
2019-03-04T05:42:15.364Z,54.4
2019-03-04T05:45:15.978Z,53.9
2019-03-04T05:48:15.582Z,53.9
2019-03-04T05:51:15.276Z,53.6
2019-03-04T05:54:16.275Z,53.7
2019-03-04T05:57:15.945Z,53.7
2019-03-04T06:00:15.830Z,53.9
2019-03-04T06:03:15.745Z,54.1
2019-03-04T06:06:15.473Z,54.4
2019-03-04T06:09:15.477Z,54.8
2019-03-04T06:12:15.233Z,55.2
2019-03-04T06:15:15.904Z,55.8
2019-03-04T06:18:15.747Z,56.8
2019-03-04T06:21:15.565Z,59.0
2019-03-04T06:24:15.240Z,59.8
2019-03-04T06:27:16.057Z,60.9
2019-03-04T06:30:15.867Z,60.7
2019-03-04T06:33:15.023Z,61.9
2019-03-04T06:36:16.043Z,64.2
2019-03-04T06:39:15.551Z,62.8
2019-03-04T06:42:15.366Z,63.1
2019-03-04T06:45:15.092Z,62.7
2019-03-04T06:48:15.861Z,61.8
2019-03-04T06:51:15.627Z,61.5
2019-03-04T06:54:15.378Z,60.0
2019-03-04T06:57:15.612Z,58.9
2019-03-04T07:00:15.657Z,57.9
2019-03-04T07:03:15.765Z,56.8
2019-03-04T07:06:15.480Z,57.0
2019-03-04T07:09:15.292Z,56.7
2019-03-04T07:12:15.161Z,55.9
2019-03-04T07:15:15.101Z,54.9
2019-03-04T07:18:15.711Z,54.5
2019-03-04T07:21:15.323Z,53.8
2019-03-04T07:24:15.284Z,53.5
2019-03-04T07:27:15.841Z,53.8
2019-03-04T07:30:15.476Z,52.9
2019-03-04T07:33:15.225Z,52.7
2019-03-04T07:36:15.119Z,51.7
2019-03-04T07:39:15.847Z,51.5
2019-03-04T07:42:15.609Z,51.5
2019-03-04T07:45:15.599Z,50.9
2019-03-04T07:48:15.727Z,50.3
2019-03-04T07:51:15.283Z,50.6
2019-03-04T07:54:15.429Z,50.1
2019-03-04T07:57:15.207Z,49.5
2019-03-04T08:00:15.927Z,48.5
2019-03-04T08:03:15.595Z,49.0
2019-03-04T08:06:15.184Z,47.4
2019-03-04T08:09:15.249Z,46.7
2019-03-04T08:12:15.287Z,45.8
2019-03-04T08:15:15.613Z,44.8
2019-03-04T08:18:15.154Z,43.5
2019-03-04T08:21:15.891Z,43.2
2019-03-04T08:24:15.898Z,45.5
2019-03-04T08:27:15.646Z,47.7
2019-03-04T08:30:15.586Z,51.6
2019-03-04T08:33:15.745Z,57.3
2019-03-04T08:36:15.570Z,59.5
2019-03-04T08:39:15.766Z,61.0
2019-03-04T08:42:15.455Z,61.7
2019-03-04T08:45:15.017Z,59.4
2019-03-04T08:48:15.965Z,57.8
2019-03-04T08:51:15.693Z,55.7
2019-03-04T08:54:15.526Z,54.7
2019-03-04T08:57:15.989Z,53.7
2019-03-04T09:00:16.050Z,51.4
2019-03-04T09:03:15.809Z,50.4
2019-03-04T09:06:15.434Z,50.2
2019-03-04T09:09:15.385Z,48.7
2019-03-04T09:12:15.174Z,47.8
2019-03-04T09:15:15.953Z,45.8
2019-03-04T09:18:15.566Z,45.1
2019-03-04T09:21:15.498Z,45.2
2019-03-04T09:24:15.345Z,46.0
2019-03-04T09:27:15.289Z,44.8
2019-03-04T09:30:15.168Z,45.0
2019-03-04T09:33:16.095Z,42.9
2019-03-04T09:36:15.179Z,41.0
2019-03-04T09:39:15.890Z,40.2
2019-03-04T09:42:15.729Z,38.2
2019-03-04T09:45:15.254Z,35.8
2019-03-04T09:48:15.640Z,35.1
2019-03-04T09:51:24.030Z,34.8
2019-03-04T09:54:15.640Z,33.5
2019-03-04T09:57:15.307Z,32.9
2019-03-04T10:00:15.170Z,32.2
2019-03-04T10:03:15.559Z,32.4
2019-03-04T10:06:15.792Z,33.9
2019-03-04T10:09:15.195Z,34.9
2019-03-04T10:12:15.648Z,35.6
2019-03-04T10:15:14.974Z,36.2
2019-03-04T10:18:15.477Z,36.6
2019-03-04T10:21:15.691Z,36.1
2019-03-04T10:24:15.488Z,36.9
2019-03-04T10:27:15.097Z,36.9
2019-03-04T10:30:15.948Z,38.9
2019-03-04T10:33:15.750Z,40.9
2019-03-04T10:36:15.939Z,40.9
2019-03-04T10:39:17.828Z,43.8
2019-03-04T10:42:15.496Z,47.2
2019-03-04T10:45:15.616Z,47.9
2019-03-04T10:48:15.563Z,49.2
2019-03-04T10:51:15.474Z,51.6
2019-03-04T10:54:15.369Z,50.6
2019-03-04T10:57:15.198Z,51.9
2019-03-04T11:00:15.393Z,51.4
2019-03-04T11:03:15.438Z,48.0
2019-03-04T11:06:15.064Z,44.5
2019-03-04T11:09:15.909Z,41.2
2019-03-04T11:12:15.395Z,39.6
2019-03-04T11:15:15.093Z,39.1
2019-03-04T11:18:15.425Z,40.1
2019-03-04T11:21:15.474Z,39.4
2019-03-04T11:24:15.402Z,37.9
2019-03-04T11:27:15.354Z,36.5
2019-03-04T11:30:15.374Z,38.5
2019-03-04T11:33:15.778Z,39.9
2019-03-04T11:36:15.471Z,40.7
2019-03-04T11:39:15.235Z,40.8
2019-03-04T11:42:15.262Z,41.2
2019-03-04T11:45:15.873Z,38.8
2019-03-04T11:48:15.746Z,38.1
2019-03-04T11:51:15.417Z,36.9
2019-03-04T11:54:15.124Z,36.8
2019-03-04T11:57:15.257Z,36.7
2019-03-04T12:00:14.931Z,36.0
2019-03-04T12:03:15.087Z,36.7
2019-03-04T12:06:15.717Z,37.3
2019-03-04T12:09:15.870Z,37.6
2019-03-04T12:12:15.613Z,39.0
2019-03-04T12:15:15.265Z,39.6
2019-03-04T12:18:15.363Z,39.4
2019-03-04T12:21:15.188Z,40.7
2019-03-04T12:24:14.971Z,40.6
2019-03-04T12:27:15.039Z,41.5
2019-03-04T12:30:15.067Z,41.9
2019-03-04T12:33:15.055Z,43.1
2019-03-04T12:36:15.058Z,43.3
2019-03-04T12:39:15.107Z,44.0
2019-03-04T12:42:15.143Z,44.2
2019-03-04T12:45:15.895Z,44.0
2019-03-04T12:48:15.336Z,47.6
2019-03-04T12:51:22.815Z,50.9
2019-03-04T12:54:15.416Z,52.7
2019-03-04T12:57:14.972Z,59.4
2019-03-04T13:00:15.965Z,62.2
2019-03-04T13:03:15.850Z,63.6
2019-03-04T13:06:15.489Z,63.3
2019-03-04T13:09:15.254Z,62.7
2019-03-04T13:12:15.003Z,63.3
2019-03-04T13:15:15.656Z,62.0
2019-03-04T13:18:15.161Z,61.6
2019-03-04T13:21:15.970Z,60.5
2019-03-04T13:24:15.904Z,59.2
2019-03-04T13:27:23.587Z,59.7
2019-03-04T13:30:15.875Z,58.4
2019-03-04T13:33:15.067Z,57.2
2019-03-04T13:36:15.763Z,58.9
2019-03-04T13:39:15.643Z,58.2
2019-03-04T13:42:15.107Z,59.3
2019-03-04T13:45:15.984Z,60.7
2019-03-04T13:48:15.733Z,67.9
2019-03-04T13:51:15.476Z,69.7
2019-03-04T13:54:15.260Z,71.3
2019-03-04T13:57:15.529Z,72.2
2019-03-04T14:00:15.388Z,72.0
2019-03-04T14:03:15.428Z,71.7
2019-03-04T14:06:15.625Z,71.3
2019-03-04T14:09:15.779Z,70.3
2019-03-04T14:12:15.678Z,69.6
2019-03-04T14:15:15.499Z,69.4
2019-03-04T14:18:15.476Z,69.8
2019-03-04T14:21:15.135Z,68.5
2019-03-04T14:24:15.887Z,66.7
2019-03-04T14:27:15.505Z,66.6
2019-03-04T14:30:15.341Z,67.0
2019-03-04T14:33:15.021Z,67.2
2019-03-04T14:36:15.661Z,70.7
2019-03-04T14:39:15.307Z,71.7
2019-03-04T14:42:15.117Z,73.9
2019-03-04T14:45:15.776Z,74.2
2019-03-04T14:48:17.955Z,75.2
2019-03-04T14:51:15.043Z,76.1
2019-03-04T14:54:15.774Z,76.7
2019-03-04T14:57:15.576Z,76.3
2019-03-04T15:00:15.364Z,75.7
2019-03-04T15:03:20.901Z,76.3
2019-03-04T15:06:15.063Z,74.2
2019-03-04T15:09:15.963Z,74.7
2019-03-04T15:12:15.805Z,73.7
2019-03-04T15:15:15.685Z,75.4
2019-03-04T15:18:15.126Z,74.2
2019-03-04T15:21:15.786Z,72.9
2019-03-04T15:24:15.946Z,72.6
2019-03-04T15:27:15.063Z,72.2
2019-03-04T15:30:15.863Z,71.8
2019-03-04T15:33:18.424Z,72.4
2019-03-04T15:36:15.649Z,71.1
2019-03-04T15:39:22.598Z,70.8
2019-03-04T15:42:15.082Z,70.4
2019-03-04T15:45:15.960Z,68.3
2019-03-04T15:48:15.948Z,68.0
2019-03-04T15:51:15.113Z,68.4
2019-03-04T15:54:15.863Z,68.9
2019-03-04T15:57:15.517Z,66.4
2019-03-04T16:00:15.339Z,65.9
2019-03-04T16:03:15.132Z,65.8
2019-03-04T16:06:15.156Z,65.7
2019-03-04T16:09:15.196Z,66.3
2019-03-04T16:12:15.399Z,65.2
2019-03-04T16:15:15.680Z,66.6
2019-03-04T16:18:15.436Z,66.1
2019-03-04T16:21:15.203Z,65.0
2019-03-04T16:24:15.135Z,66.0
2019-03-04T16:27:15.690Z,63.7
2019-03-04T16:30:15.594Z,66.2
2019-03-04T16:33:15.265Z,64.6
2019-03-04T16:36:15.175Z,64.4
2019-03-04T16:39:15.082Z,65.3
2019-03-04T16:42:15.966Z,64.5
2019-03-04T16:45:15.602Z,63.3
2019-03-04T16:48:15.439Z,64.4
2019-03-04T16:51:15.172Z,62.1
2019-03-04T16:54:15.975Z,62.8
2019-03-04T16:57:15.855Z,62.9
2019-03-04T17:00:15.611Z,64.5
2019-03-04T17:03:15.316Z,61.5
2019-03-04T17:06:14.953Z,65.0
2019-03-04T17:09:15.838Z,63.7
2019-03-04T17:12:15.531Z,62.3
2019-03-04T17:15:15.360Z,63.3
2019-03-04T17:18:17.429Z,62.4
2019-03-04T17:21:15.443Z,64.7
2019-03-04T17:24:15.232Z,62.0
2019-03-04T17:27:15.874Z,62.7
2019-03-04T17:30:15.680Z,63.3
2019-03-04T17:33:15.076Z,62.8
2019-03-04T17:36:15.143Z,61.8
2019-03-04T17:39:15.105Z,63.3
2019-03-04T17:42:15.766Z,62.3
2019-03-04T17:45:15.464Z,62.5
2019-03-04T17:48:15.473Z,62.3
2019-03-04T17:51:15.252Z,62.0
2019-03-04T17:54:15.147Z,61.0
2019-03-04T17:57:15.181Z,59.9
2019-03-04T18:00:15.966Z,62.3
2019-03-04T18:03:15.857Z,62.6
2019-03-04T18:06:15.596Z,60.8
2019-03-04T18:09:15.474Z,61.4
2019-03-04T18:12:15.294Z,61.0
2019-03-04T18:15:15.163Z,61.5
2019-03-04T18:18:15.035Z,61.9
2019-03-04T18:21:15.688Z,62.1
2019-03-04T18:24:15.759Z,60.8
2019-03-04T18:27:15.482Z,61.7
2019-03-04T18:30:15.642Z,61.8
2019-03-04T18:33:15.124Z,61.2
2019-03-04T18:36:15.876Z,61.4
2019-03-04T18:39:15.740Z,61.5
2019-03-04T18:42:15.026Z,61.6
2019-03-04T18:45:16.802Z,61.7
2019-03-04T18:48:15.767Z,61.7
2019-03-04T18:51:15.590Z,61.8
2019-03-04T18:54:15.083Z,61.9
2019-03-04T18:57:15.685Z,62.2
2019-03-04T19:00:15.393Z,62.0
2019-03-04T19:03:15.846Z,61.7
2019-03-04T19:06:15.458Z,61.7
2019-03-04T19:09:15.098Z,61.7
2019-03-04T19:12:15.909Z,62.0
2019-03-04T19:15:15.772Z,61.6
2019-03-04T19:18:15.572Z,61.4
2019-03-04T19:21:15.258Z,61.5
2019-03-04T19:24:14.990Z,61.9
2019-03-04T19:27:15.651Z,61.6
2019-03-04T19:30:15.402Z,61.5
2019-03-04T19:33:15.208Z,62.0
2019-03-04T19:36:15.024Z,61.4
2019-03-04T19:39:15.742Z,61.5
2019-03-04T19:42:15.626Z,61.3
2019-03-04T19:45:15.423Z,62.6
2019-03-04T19:48:15.175Z,61.8
2019-03-04T19:51:14.917Z,61.6
2019-03-04T19:54:15.806Z,62.1
2019-03-04T19:57:15.669Z,62.5
2019-03-04T20:00:15.694Z,62.8
2019-03-04T20:03:15.541Z,62.9
2019-03-04T20:06:15.340Z,63.5
2019-03-04T20:09:15.300Z,63.7
2019-03-04T20:12:15.446Z,64.1
2019-03-04T20:15:15.715Z,63.2
2019-03-04T20:18:15.686Z,63.1
2019-03-04T20:21:15.578Z,63.2
2019-03-04T20:24:15.397Z,63.2
2019-03-04T20:27:15.137Z,64.2
2019-03-04T20:30:15.283Z,63.5
2019-03-04T20:33:15.167Z,63.7
2019-03-04T20:36:15.834Z,63.6
2019-03-04T20:39:15.705Z,63.9
2019-03-04T20:42:15.524Z,63.8
2019-03-04T20:45:15.270Z,63.7
2019-03-04T20:48:15.450Z,63.4
2019-03-04T20:51:14.954Z,64.0
2019-03-04T20:54:15.134Z,63.6
2019-03-04T20:57:15.884Z,63.7
2019-03-04T21:00:15.802Z,63.8
2019-03-04T21:03:15.100Z,63.7
2019-03-04T21:06:15.061Z,63.8
2019-03-04T21:09:15.910Z,63.8
2019-03-04T21:12:15.647Z,63.7
2019-03-04T21:15:15.546Z,63.7
2019-03-04T21:18:15.515Z,63.2
2019-03-04T21:21:15.384Z,63.3
2019-03-04T21:24:15.338Z,64.5
2019-03-04T21:27:15.060Z,63.8
2019-03-04T21:30:15.682Z,63.9
2019-03-04T21:33:15.546Z,64.1
2019-03-04T21:36:16.080Z,64.4
2019-03-04T21:39:15.071Z,64.7
2019-03-04T21:42:15.228Z,66.7
2019-03-04T21:45:15.903Z,67.8
2019-03-04T21:48:15.998Z,69.0
2019-03-04T21:51:15.903Z,70.6
2019-03-04T21:54:15.247Z,71.3
2019-03-04T21:57:15.026Z,71.3
2019-03-04T22:00:15.197Z,72.0
2019-03-04T22:03:15.817Z,72.6
2019-03-04T22:06:15.108Z,72.8
2019-03-04T22:09:15.843Z,72.2
2019-03-04T22:12:15.654Z,72.4
2019-03-04T22:15:15.272Z,72.2
2019-03-04T22:18:15.869Z,72.6
2019-03-04T22:21:16.994Z,71.7
2019-03-04T22:24:15.816Z,71.0
2019-03-04T22:27:15.537Z,71.3
2019-03-04T22:30:15.450Z,70.7
2019-03-04T22:33:15.306Z,69.9
2019-03-04T22:36:15.126Z,70.1
2019-03-04T22:39:15.715Z,69.9
2019-03-04T22:42:15.295Z,69.8
2019-03-04T22:45:14.957Z,69.1
2019-03-04T22:48:15.773Z,68.6
2019-03-04T22:51:15.445Z,68.5
2019-03-04T22:54:15.147Z,68.3
2019-03-04T22:57:15.706Z,68.5
2019-03-04T23:00:15.527Z,68.3
2019-03-04T23:03:15.708Z,67.7
2019-03-04T23:06:15.366Z,67.8
2019-03-04T23:09:15.465Z,67.5
2019-03-04T23:12:15.470Z,66.8
2019-03-04T23:15:15.714Z,67.5
2019-03-04T23:18:15.642Z,66.9
2019-03-04T23:21:15.465Z,66.8
2019-03-04T23:24:15.218Z,66.1
2019-03-04T23:27:15.851Z,66.2
2019-03-04T23:30:15.235Z,66.4
2019-03-04T23:33:15.803Z,66.3
2019-03-04T23:36:15.614Z,66.0
2019-03-04T23:39:15.141Z,65.9
2019-03-04T23:42:15.707Z,66.0
2019-03-04T23:45:15.394Z,65.3
2019-03-04T23:48:15.012Z,65.2
2019-03-04T23:51:15.763Z,65.3
2019-03-04T23:54:15.507Z,65.1
2019-03-04T23:57:15.138Z,65.2
